Time;durP1;ratioP1;P1;durP2;ratioP2;P2;SDS_P1;SDS_P2;PMS_P1;PMS_P2;Temp;Humidity;BMP_temperature;BMP_pressure;BME280_temperature;BME280_humidity;BME280_pressure;Samples;Min_cycle;Max_cycle;Signal;HPM_P1;HPM_P2
2022/02/03 00:01:49;;;;;;;4.53;2.97;;;18.50;57.30;;;;;;6308662;22;20151;-83
2022/02/03 00:04:18;;;;;;;4.82;3.08;;;18.50;57.20;;;;;;6281258;22;20139;-80
2022/02/03 00:06:50;;;;;;;3.55;2.63;;;18.50;57.10;;;;;;6281637;22;20155;-85
2022/02/03 00:22:52;;;;;;;4.85;2.60;;;18.40;57.10;;;;;;6262230;22;20136;-83
2022/02/03 00:25:27;;;;;;;6.35;3.08;;;18.50;56.80;;;;;;6280993;22;20144;-82
2022/02/03 00:28:08;;;;;;;8.63;2.83;;;18.40;57.00;;;;;;6283396;22;20131;-81
2022/02/03 00:31:12;;;;;;;7.93;2.88;;;18.40;57.30;;;;;;6283575;22;20168;-83
2022/02/03 00:33:40;;;;;;;4.07;2.90;;;18.40;56.90;;;;;;6285768;22;20186;-85
2022/02/03 00:36:14;;;;;;;5.45;2.70;;;18.40;56.80;;;;;;6281133;22;20197;-82
2022/02/03 00:49:28;;;;;;;5.13;2.83;;;18.30;57.20;;;;;;6260946;22;20172;-82
2022/02/03 00:51:59;;;;;;;5.40;2.80;;;18.30;57.50;;;;;;6230692;22;20156;-84
2022/02/03 00:54:31;;;;;;;4.93;2.50;;;18.30;57.20;;;;;;6281254;22;20129;-85
2022/02/03 00:57:05;;;;;;;6.38;2.95;;;18.30;57.20;;;;;;6230562;22;20155;-83
2022/02/03 00:59:49;;;;;;;7.65;2.80;;;18.30;57.10;;;;;;6281202;22;20150;-83
2022/02/03 01:02:17;;;;;;;5.47;2.83;;;18.30;57.10;;;;;;6182643;23;20650;-81
2022/02/03 01:04:47;;;;;;;4.13;2.85;;;18.30;57.20;;;;;;6151996;23;20143;-82
2022/02/03 01:07:17;;;;;;;4.88;2.80;;;18.30;57.40;;;;;;6204074;22;20160;-82
2022/02/03 01:09:59;;;;;;;4.78;2.67;;;18.30;57.40;;;;;;6227052;23;20646;-82
2022/02/03 01:15:19;;;;;;;4.22;2.58;;;18.30;57.10;;;;;;6219754;23;20159;-83
2022/02/03 01:18:03;;;;;;;4.40;3.00;;;18.20;57.70;;;;;;6222242;23;20217;-81
2022/02/03 01:34:27;;;;;;;3.50;2.90;;;18.20;57.50;;;;;;6220969;23;20175;-82
2022/02/03 01:44:57;;;;;;;4.13;2.78;;;18.20;57.50;;;;;;6198240;23;20158;-82
2022/02/03 01:47:33;;;;;;;4.40;2.75;;;18.20;57.50;;;;;;6200982;22;20154;-83
2022/02/03 01:52:56;;;;;;;6.40;2.72;;;18.10;57.70;;;;;;6216741;23;20154;-84
2022/02/03 01:55:24;;;;;;;4.82;2.80;;;18.10;57.50;;;;;;6227868;23;20604;-83
2022/02/03 01:58:05;;;;;;;4.15;2.70;;;18.10;57.30;;;;;;6204722;22;20230;-82
2022/02/03 02:00:42;;;;;;;5.00;2.78;;;18.20;57.40;;;;;;6154112;22;20253;-80
2022/02/03 02:03:17;;;;;;;5.28;2.90;;;18.10;57.20;;;;;;6205148;23;20658;-81
2022/02/03 02:06:14;;;;;;;4.85;2.53;;;18.10;57.30;;;;;;6172795;23;20155;-80
2022/02/03 02:08:56;;;;;;;6.43;2.80;;;18.10;57.30;;;;;;6197478;23;20136;-81
2022/02/03 02:12:02;;;;;;;6.55;3.05;;;18.20;57.50;;;;;;6211540;23;20514;-83
2022/02/03 02:20:06;;;;;;;3.97;2.78;;;18.10;57.10;;;;;;6189889;23;20136;-84
2022/02/03 02:38:54;;;;;;;2.80;2.40;;;18.10;57.30;;;;;;6208056;23;20457;-80
2022/02/03 02:42:23;;;;;;;4.50;2.65;;;18.10;57.10;;;;;;6191377;23;20563;-84
2022/02/03 02:44:55;;;;;;;6.30;2.78;;;18.10;57.40;;;;;;6163681;23;20156;-83
2022/02/03 02:47:31;;;;;;;4.35;2.85;;;18.10;57.40;;;;;;6174389;23;20152;-84
2022/02/03 02:50:05;;;;;;;4.03;2.50;;;18.10;57.00;;;;;;6172209;23;20179;-84
2022/02/03 02:52:39;;;;;;;5.22;2.88;;;18.10;57.20;;;;;;6224385;23;20128;-82
2022/02/03 03:30:26;;;;;;;5.50;2.70;;;18.00;56.70;;;;;;6147227;23;20191;-84
2022/02/03 03:33:24;;;;;;;3.88;2.70;;;18.00;56.70;;;;;;6134456;23;20336;-86
2022/02/03 03:35:55;;;;;;;3.60;2.53;;;17.90;57.30;;;;;;6112529;23;20148;-82
2022/02/03 03:38:24;;;;;;;3.38;2.47;;;18.00;57.40;;;;;;6197142;23;20568;-84
2022/02/03 03:40:53;;;;;;;4.68;2.60;;;17.90;56.70;;;;;;6175014;23;20211;-82
2022/02/03 03:43:27;;;;;;;4.13;2.58;;;18.00;56.70;;;;;;6173679;23;20159;-81
2022/02/03 03:45:54;;;;;;;4.05;2.70;;;18.00;57.10;;;;;;6173473;23;20209;-84
2022/02/03 03:48:28;;;;;;;4.53;2.72;;;18.00;57.00;;;;;;6124755;23;20211;-80
2022/02/03 03:50:56;;;;;;;3.33;2.60;;;18.00;56.90;;;;;;6153833;23;20190;-83
2022/02/03 03:53:29;;;;;;;5.07;2.70;;;18.00;57.20;;;;;;6149218;23;20218;-83
2022/02/03 03:56:05;;;;;;;3.97;2.75;;;18.00;56.90;;;;;;6218504;23;20137;-84
2022/02/03 03:58:58;;;;;;;3.88;2.45;;;17.90;57.30;;;;;;6217645;23;20140;-84
2022/02/03 04:31:14;;;;;;;3.40;2.58;;;17.90;57.50;;;;;;6242440;22;20179;-85
2022/02/03 04:37:01;;;;;;;3.63;2.45;;;17.90;57.00;;;;;;6261692;22;20156;-81
2022/02/03 04:42:30;;;;;;;4.07;2.50;;;17.80;57.60;;;;;;6244084;22;20171;-80
2022/02/03 04:51:09;;;;;;;3.88;2.50;;;17.80;57.80;;;;;;6308506;22;20488;-86
2022/02/03 04:57:55;;;;;;;2.75;2.33;;;17.80;57.10;;;;;;6290184;22;20152;-83
2022/02/03 05:03:39;;;;;;;3.38;2.40;;;17.80;57.20;;;;;;6221636;22;20199;-81
2022/02/03 05:07:10;;;;;;;3.45;2.45;;;17.80;57.40;;;;;;6240781;22;20163;-85
2022/02/03 05:10:05;;;;;;;3.13;2.28;;;17.70;57.00;;;;;;6307920;22;20179;-82
2022/02/03 05:13:12;;;;;;;5.30;2.53;;;17.80;56.80;;;;;;6217087;22;20459;-80
2022/02/03 05:16:19;;;;;;;3.03;2.35;;;17.80;57.20;;;;;;6260281;22;20571;-82
2022/02/03 05:19:18;;;;;;;3.95;2.50;;;17.80;57.40;;;;;;6265442;22;20152;-84
2022/02/03 05:25:26;;;;;;;4.72;2.38;;;17.70;56.60;;;;;;6290666;22;20128;-84
2022/02/03 05:43:25;;;;;;;3.10;2.30;;;17.90;56.60;;;;;;6236602;22;20179;-82
2022/02/03 05:46:02;;;;;;;2.53;2.17;;;18.00;56.60;;;;;;6265753;22;20652;-83
2022/02/03 06:02:31;;;;;;;3.08;2.30;;;18.00;56.10;;;;;;6259306;22;20183;-84
2022/02/03 06:04:59;;;;;;;3.08;2.30;;;18.10;56.30;;;;;;6308206;22;20603;-82
2022/02/03 06:07:44;;;;;;;3.92;2.50;;;18.10;56.30;;;;;;6258733;22;20255;-82
2022/02/03 06:13:00;;;;;;;4.03;2.50;;;18.00;55.80;;;;;;6263205;22;20132;-87
2022/02/03 06:15:40;;;;;;;3.38;2.50;;;18.00;55.80;;;;;;6261187;22;20139;-83
2022/02/03 06:21:21;;;;;;;3.15;2.20;;;18.10;55.70;;;;;;6290591;22;20212;-80
2022/02/03 06:23:59;;;;;;;3.53;2.70;;;18.10;55.50;;;;;;6277516;22;20158;-81
2022/02/03 06:29:16;;;;;;;2.70;2.13;;;18.10;55.30;;;;;;6249816;22;20156;-81
2022/02/03 06:31:45;;;;;;;4.47;2.40;;;18.10;55.40;;;;;;6244067;22;20175;-80
2022/02/03 06:34:12;;;;;;;3.00;2.47;;;18.20;54.70;;;;;;6218824;22;20148;-81
2022/02/03 06:36:40;;;;;;;3.15;2.30;;;18.20;55.30;;;;;;6217400;22;20148;-81
2022/02/03 06:39:27;;;;;;;4.03;2.55;;;18.20;55.30;;;;;;6218763;22;20207;-81
2022/02/03 06:41:57;;;;;;;4.43;2.55;;;18.20;55.00;;;;;;6219383;22;20230;-80
2022/02/03 06:44:30;;;;;;;4.40;2.30;;;18.20;55.30;;;;;;6244600;22;20151;-80
2022/02/03 06:47:13;;;;;;;3.05;2.17;;;18.20;54.60;;;;;;6221985;22;20528;-80
2022/02/03 06:49:58;;;;;;;2.80;2.35;;;18.20;55.60;;;;;;6249257;22;20180;-80
2022/02/03 06:52:44;;;;;;;3.33;2.75;;;18.10;54.60;;;;;;6247979;22;20169;-80
2022/02/03 06:55:20;;;;;;;3.95;2.55;;;18.20;55.60;;;;;;6294831;22;20255;-81
2022/02/03 06:57:59;;;;;;;2.88;2.33;;;18.10;55.20;;;;;;6259251;22;20124;-87
2022/02/03 07:00:34;;;;;;;4.30;2.40;;;18.10;55.00;;;;;;6284442;22;20132;-83
2022/02/03 07:03:02;;;;;;;3.53;2.35;;;18.20;54.90;;;;;;6306956;22;20213;-88
2022/02/03 07:05:27;;;;;;;3.75;2.50;;;18.20;55.20;;;;;;6233298;22;20239;-84
2022/02/03 07:07:53;;;;;;;3.90;2.20;;;18.20;55.20;;;;;;6283292;22;20132;-85
2022/02/03 07:10:20;;;;;;;2.85;2.00;;;18.10;55.20;;;;;;6232721;22;20733;-82
2022/02/03 07:12:45;;;;;;;3.50;2.70;;;18.20;55.00;;;;;;6283185;22;20136;-82
2022/02/03 07:15:11;;;;;;;4.78;2.30;;;18.20;54.50;;;;;;6255759;22;20155;-86
2022/02/03 07:17:39;;;;;;;5.00;2.33;;;18.20;53.90;;;;;;6308936;22;20128;-83
2022/02/03 07:20:06;;;;;;;3.42;2.50;;;18.30;54.20;;;;;;6312167;22;20243;-87
2022/02/03 07:22:32;;;;;;;3.05;2.33;;;18.30;54.20;;;;;;6232662;22;20602;-82
2022/02/03 07:24:58;;;;;;;3.00;2.30;;;18.20;54.40;;;;;;6257360;22;20132;-80
2022/02/03 07:27:24;;;;;;;2.85;2.08;;;18.30;54.20;;;;;;6283790;22;20497;-81
2022/02/03 07:29:53;;;;;;;3.90;2.22;;;18.30;53.60;;;;;;6282491;22;20591;-85
2022/02/03 07:32:21;;;;;;;2.28;2.00;;;18.30;53.50;;;;;;6205498;22;20155;-83
2022/02/03 07:34:50;;;;;;;3.15;2.28;;;18.40;53.20;;;;;;6230695;22;20204;-84
2022/02/03 07:37:17;;;;;;;2.80;2.40;;;18.40;52.80;;;;;;6232126;22;20451;-83
2022/02/03 07:39:43;;;;;;;3.47;2.17;;;18.40;53.30;;;;;;6256498;22;20132;-85
2022/02/03 07:42:09;;;;;;;3.88;2.30;;;18.40;53.00;;;;;;6257132;22;20211;-83
2022/02/03 07:44:35;;;;;;;2.35;2.15;;;18.40;53.50;;;;;;6231086;22;20225;-86
2022/02/03 07:47:01;;;;;;;4.93;2.40;;;18.40;53.20;;;;;;6282279;22;20136;-85
2022/02/03 07:49:29;;;;;;;3.05;2.30;;;18.40;54.20;;;;;;6256454;22;20246;-87
2022/02/03 07:51:56;;;;;;;3.83;2.50;;;18.40;53.40;;;;;;6255618;22;20193;-83
2022/02/03 07:54:22;;;;;;;2.58;2.33;;;18.40;52.90;;;;;;6255790;22;20154;-83
2022/02/03 07:56:47;;;;;;;4.50;2.53;;;18.40;53.40;;;;;;6282005;22;20151;-81
2022/02/03 07:59:17;;;;;;;4.03;2.47;;;18.40;54.30;;;;;;6308986;22;20128;-86
2022/02/03 08:01:43;;;;;;;3.17;2.40;;;18.40;54.00;;;;;;6205182;22;20161;-82
2022/02/03 08:04:09;;;;;;;3.13;2.45;;;18.30;53.70;;;;;;6309398;22;20136;-83
2022/02/03 08:06:40;;;;;;;3.10;2.30;;;18.30;53.50;;;;;;6258282;22;20148;-82
2022/02/03 08:09:20;;;;;;;3.75;1.95;;;18.30;53.40;;;;;;6258841;22;20148;-83
2022/02/03 08:11:52;;;;;;;2.85;1.90;;;18.40;53.90;;;;;;6260261;22;20231;-84
2022/02/03 08:14:24;;;;;;;3.33;2.20;;;18.40;53.50;;;;;;6231906;22;20148;-83
2022/02/03 08:16:55;;;;;;;2.30;2.10;;;18.40;53.50;;;;;;6283575;22;20197;-84
2022/02/03 08:19:33;;;;;;;3.58;2.30;;;18.40;53.20;;;;;;6258832;22;20519;-84
2022/02/03 08:22:06;;;;;;;4.03;2.33;;;18.40;53.20;;;;;;6286050;22;20186;-84
2022/02/03 08:24:44;;;;;;;2.75;2.10;;;18.50;53.50;;;;;;6284133;22;20139;-81
2022/02/03 08:32:49;;;;;;;3.40;2.53;;;18.40;52.80;;;;;;6266783;22;20201;-81
2022/02/03 08:35:22;;;;;;;3.58;2.50;;;18.50;53.10;;;;;;6234803;22;20152;-85
2022/02/03 08:38:02;;;;;;;2.65;2.17;;;18.50;53.10;;;;;;6262207;22;20203;-83
2022/02/03 08:40:42;;;;;;;2.15;1.88;;;18.50;53.30;;;;;;6287144;22;20128;-81
2022/02/03 08:43:10;;;;;;;3.33;2.42;;;18.50;53.40;;;;;;6238305;22;20144;-81
2022/02/03 08:45:39;;;;;;;2.88;2.30;;;18.50;53.90;;;;;;6282856;22;20128;-84
2022/02/03 08:48:08;;;;;;;3.65;2.25;;;18.40;52.90;;;;;;6284903;22;20307;-82
2022/02/03 08:50:35;;;;;;;4.00;2.70;;;18.40;53.80;;;;;;6235096;22;20183;-81
2022/02/03 08:53:12;;;;;;;2.60;1.95;;;18.50;53.10;;;;;;6288813;22;20147;-81
2022/02/03 09:32:23;;;;;;;3.92;2.63;;;18.60;53.20;;;;;;6286139;22;20558;-81
2022/02/03 09:36:27;;;;;;;2.67;2.13;;;18.60;52.90;;;;;;6266316;22;20148;-81
2022/02/03 09:39:05;;;;;;;3.22;2.40;;;18.60;53.20;;;;;;6287118;22;20659;-80
2022/02/03 09:52:57;;;;;;;3.15;2.30;;;18.60;53.80;;;;;;6263301;22;20128;-87
2022/02/03 09:55:35;;;;;;;2.88;2.33;;;18.60;53.60;;;;;;6266748;22;20152;-82
2022/02/03 09:58:13;;;;;;;3.05;2.45;;;18.60;53.70;;;;;;6285160;22;20128;-84
2022/02/03 10:00:47;;;;;;;3.25;2.50;;;18.60;53.70;;;;;;6308022;22;20132;-85
2022/02/03 10:03:17;;;;;;;2.95;2.25;;;18.50;53.60;;;;;;6285169;22;20188;-84
2022/02/03 10:06:05;;;;;;;3.17;2.30;;;18.60;53.60;;;;;;6259962;22;20247;-83
2022/02/03 10:08:32;;;;;;;3.22;2.10;;;18.60;53.80;;;;;;6285579;22;20138;-83
2022/02/03 10:11:19;;;;;;;2.42;2.20;;;18.50;53.80;;;;;;6232458;22;20609;-83
2022/02/03 10:13:56;;;;;;;2.38;2.17;;;18.60;53.60;;;;;;6232204;22;20179;-82
2022/02/03 10:16:29;;;;;;;3.20;2.30;;;18.60;53.60;;;;;;6208979;22;20151;-84
2022/02/03 10:19:14;;;;;;;3.55;2.25;;;18.60;54.00;;;;;;6232771;22;20709;-84
2022/02/03 10:21:46;;;;;;;2.97;2.30;;;18.70;53.90;;;;;;6236968;22;20148;-86
2022/02/03 10:24:17;;;;;;;4.90;2.35;;;18.60;54.30;;;;;;6235500;22;20159;-84
2022/02/03 10:26:49;;;;;;;2.50;2.10;;;18.60;54.30;;;;;;6235201;22;20611;-82
2022/02/03 10:29:27;;;;;;;3.10;2.28;;;18.70;54.10;;;;;;6256906;22;20348;-84
2022/02/03 10:31:58;;;;;;;2.83;2.13;;;18.60;53.70;;;;;;6233335;22;20155;-83
2022/02/03 10:34:29;;;;;;;3.45;2.00;;;18.70;53.00;;;;;;6231667;22;20204;-81
2022/02/03 10:40:19;;;;;;;3.53;2.40;;;18.60;52.90;;;;;;6264186;22;20151;-87
2022/02/03 10:43:11;;;;;;;5.20;2.22;;;18.70;53.60;;;;;;6241976;22;20156;-85
2022/02/03 10:45:45;;;;;;;3.85;1.92;;;18.70;52.90;;;;;;6263892;22;20232;-83
2022/02/03 10:48:38;;;;;;;4.13;2.17;;;18.70;52.40;;;;;;6246598;22;20468;-82
2022/02/03 10:51:16;;;;;;;3.70;2.05;;;18.70;53.20;;;;;;6268688;22;20183;-84
2022/02/03 10:54:06;;;;;;;3.55;2.22;;;18.70;52.30;;;;;;6240904;22;20144;-86
2022/02/03 10:57:10;;;;;;;2.78;2.10;;;18.70;53.20;;;;;;6247260;22;20152;-84
2022/02/03 10:59:50;;;;;;;4.18;2.47;;;18.70;53.30;;;;;;6246726;22;20522;-81
2022/02/03 11:02:26;;;;;;;2.85;2.17;;;18.70;53.30;;;;;;6246669;22;20168;-84
2022/02/03 11:05:16;;;;;;;2.60;2.08;;;18.70;53.30;;;;;;6290612;22;20172;-83
2022/02/03 11:07:59;;;;;;;2.63;2.00;;;18.70;53.10;;;;;;6247017;22;20172;-85
2022/02/03 11:10:32;;;;;;;2.42;1.98;;;18.60;53.30;;;;;;6240177;22;20197;-88
2022/02/03 11:12:59;;;;;;;2.25;1.92;;;18.70;53.70;;;;;;6263333;22;20185;-83
2022/02/03 11:15:29;;;;;;;3.25;1.70;;;18.70;53.70;;;;;;6234224;22;20162;-84
2022/02/03 11:18:05;;;;;;;3.20;2.40;;;18.70;53.40;;;;;;6260115;22;20159;-83
2022/02/03 11:20:32;;;;;;;3.10;2.10;;;18.70;53.90;;;;;;6234987;22;20159;-85
2022/02/03 11:26:04;;;;;;;2.85;2.03;;;18.70;53.50;;;;;;6270908;22;20152;-81
2022/02/03 11:29:01;;;;;;;3.30;2.40;;;18.70;53.70;;;;;;6251865;22;20181;-86
2022/02/03 11:32:04;;;;;;;3.17;2.22;;;18.70;53.50;;;;;;6269824;22;20183;-82
2022/02/03 11:35:01;;;;;;;2.80;2.00;;;18.70;53.10;;;;;;6266787;22;20147;-83
2022/02/03 11:37:51;;;;;;;3.28;2.00;;;18.60;53.40;;;;;;6313514;22;20257;-83
2022/02/03 11:40:39;;;;;;;3.67;2.28;;;18.70;54.10;;;;;;6268899;22;20197;-82
2022/02/03 11:46:16;;;;;;;4.03;2.30;;;18.70;53.40;;;;;;6314295;22;20139;-82
2022/02/03 11:49:04;;;;;;;3.83;1.92;;;18.70;53.40;;;;;;6295012;22;20192;-80
2022/02/03 11:57:53;;;;;;;;;;;;;;;;;;;;;
2022/02/03 12:03:09;;;;;;;2.97;1.98;;;18.70;53.30;;;;;;6196265;22;20199;-85
2022/02/03 12:06:09;;;;;;;4.53;2.15;;;18.70;53.20;;;;;;6212458;22;20147;-84
2022/02/03 12:14:10;;;;;;;3.35;1.85;;;18.70;53.00;;;;;;6222464;22;20131;-88
2022/02/03 12:19:38;;;;;;;3.15;2.20;;;18.70;53.10;;;;;;6239635;22;20143;-85
2022/02/03 12:22:25;;;;;;;2.55;2.00;;;18.70;52.80;;;;;;6257672;22;20261;-83
2022/02/03 12:25:27;;;;;;;3.00;1.95;;;18.70;52.30;;;;;;6256548;22;20150;-84
2022/02/03 12:28:17;;;;;;;2.60;2.00;;;18.70;52.90;;;;;;6224956;22;20137;-82
2022/02/03 12:31:11;;;;;;;3.47;2.20;;;18.70;52.90;;;;;;6256139;22;20254;-83
2022/02/03 12:41:36;;;;;;;2.22;1.90;;;18.80;51.10;;;;;;6153691;23;20135;-84
2022/02/03 12:44:06;;;;;;;4.35;2.00;;;18.80;48.80;;;;;;6046207;23;20157;-84
2022/02/03 12:46:34;;;;;;;3.33;2.30;;;18.80;51.00;;;;;;6069511;23;20223;-86
2022/02/03 12:49:09;;;;;;;2.97;2.17;;;18.90;51.20;;;;;;6068764;23;20171;-85
2022/02/03 12:51:42;;;;;;;2.30;2.08;;;18.90;50.70;;;;;;6094779;23;20168;-83
2022/02/03 12:54:16;;;;;;;2.53;2.03;;;18.80;52.20;;;;;;6118621;23;20149;-85
2022/02/03 12:56:49;;;;;;;2.55;1.95;;;18.80;50.80;;;;;;6143539;23;20235;-82
2022/02/03 12:59:24;;;;;;;3.20;2.30;;;18.80;51.20;;;;;;6144138;23;20500;-83
2022/02/03 13:01:49;;;;;;;2.80;2.10;;;18.80;52.20;;;;;;6141543;23;20546;-83
2022/02/03 13:04:22;;;;;;;2.97;2.17;;;18.80;51.00;;;;;;6195719;23;20168;-83
2022/02/03 13:07:02;;;;;;;2.80;1.90;;;18.90;49.40;;;;;;6169885;23;20180;-83
2022/02/03 13:09:37;;;;;;;3.88;2.50;;;18.90;52.10;;;;;;6150497;23;20207;-84
2022/02/03 13:12:21;;;;;;;3.60;2.05;;;18.90;51.70;;;;;;6195970;23;20152;-85
2022/02/03 13:14:53;;;;;;;3.28;2.40;;;18.90;50.30;;;;;;6249613;22;20144;-84
2022/02/03 13:17:29;;;;;;;2.17;1.98;;;19.00;50.40;;;;;;6287596;22;20125;-83
2022/02/03 13:20:07;;;;;;;3.92;2.00;;;19.00;50.10;;;;;;6236213;22;20163;-83
2022/02/03 13:22:42;;;;;;;4.32;1.98;;;19.00;51.80;;;;;;6257324;22;20139;-84
2022/02/03 13:25:17;;;;;;;2.20;2.00;;;19.00;52.40;;;;;;6260346;22;20128;-84
2022/02/03 13:27:59;;;;;;;2.92;2.10;;;18.90;52.60;;;;;;6258908;22;20151;-85
2022/02/03 13:30:48;;;;;;;3.03;2.38;;;18.90;52.00;;;;;;6214251;22;20176;-85
2022/02/03 13:33:16;;;;;;;2.60;2.13;;;18.90;51.80;;;;;;6214950;22;20231;-83
2022/02/03 13:35:53;;;;;;;2.60;1.92;;;18.90;51.60;;;;;;6259320;22;20128;-86
2022/02/03 13:38:39;;;;;;;3.83;1.95;;;19.00;51.20;;;;;;6216353;23;20228;-83
2022/02/03 13:41:12;;;;;;;2.55;2.00;;;19.00;50.40;;;;;;6121837;23;20180;-85
2022/02/03 13:43:39;;;;;;;2.17;1.90;;;18.90;52.50;;;;;;6142379;23;20154;-85
2022/02/03 13:46:06;;;;;;;2.78;1.98;;;19.00;51.80;;;;;;6189848;23;20160;-84
2022/02/03 13:48:32;;;;;;;2.78;2.10;;;19.00;51.70;;;;;;6164607;23;20588;-84
2022/02/03 13:51:01;;;;;;;2.33;2.05;;;19.10;51.10;;;;;;6163524;23;20165;-85
2022/02/03 13:53:37;;;;;;;2.50;2.20;;;18.90;52.20;;;;;;6216088;23;20157;-85
2022/02/03 14:10:39;;;;;;;4.43;2.22;;;19.10;50.60;;;;;;6144194;23;20671;-86
2022/02/03 14:16:13;;;;;;;3.90;2.40;;;19.10;51.10;;;;;;6110621;23;20230;-83
2022/02/03 14:21:28;;;;;;;2.65;1.90;;;19.10;50.20;;;;;;6133054;23;20248;-84
2022/02/03 14:29:17;;;;;;;3.88;1.90;;;19.20;50.20;;;;;;6133880;23;20178;-83
2022/02/03 14:31:45;;;;;;;4.82;1.77;;;19.10;51.30;;;;;;6134003;23;20178;-84
2022/02/03 14:34:16;;;;;;;3.67;2.00;;;19.10;52.60;;;;;;6135291;23;20152;-85
2022/02/03 14:36:46;;;;;;;5.53;2.03;;;19.10;52.00;;;;;;6141231;23;20229;-84
2022/02/03 14:39:19;;;;;;;5.32;2.38;;;19.00;51.30;;;;;;6198979;23;20130;-83
2022/02/03 14:41:46;;;;;;;2.65;1.85;;;19.10;52.00;;;;;;6246847;23;20180;-83
2022/02/03 14:44:15;;;;;;;4.30;2.10;;;19.00;51.70;;;;;;6173928;23;20612;-83
2022/02/03 14:46:42;;;;;;;2.88;1.98;;;19.00;52.70;;;;;;6235366;22;20152;-84
2022/02/03 14:49:09;;;;;;;3.92;2.13;;;19.00;51.70;;;;;;6259741;22;20132;-85
2022/02/03 14:51:45;;;;;;;4.40;2.30;;;19.00;52.10;;;;;;6261300;22;20186;-84
2022/02/03 14:59:32;;;;;;;7.40;2.25;;;19.00;52.60;;;;;;6259569;22;20143;-82
2022/02/03 15:01:59;;;;;;;5.97;2.10;;;19.00;52.70;;;;;;6257497;22;20540;-83
2022/02/03 15:04:29;;;;;;;4.10;1.90;;;19.00;52.60;;;;;;6232102;22;20152;-81
2022/02/03 15:07:04;;;;;;;4.43;1.90;;;19.00;52.30;;;;;;6258989;22;20474;-81
2022/02/03 15:15:09;;;;;;;4.03;1.95;;;19.00;51.30;;;;;;6312852;22;20262;-81
2022/02/03 15:17:36;;;;;;;5.05;2.10;;;19.00;52.10;;;;;;6285236;22;20151;-82
2022/02/03 15:20:03;;;;;;;3.17;1.98;;;19.00;52.70;;;;;;6284078;22;20155;-80
2022/02/03 15:22:28;;;;;;;2.90;2.20;;;19.10;51.40;;;;;;6235256;22;20157;-80
2022/02/03 15:24:54;;;;;;;5.07;2.20;;;19.10;52.20;;;;;;6235889;22;20163;-80
2022/02/03 15:27:20;;;;;;;2.45;1.80;;;19.00;51.70;;;;;;6311868;22;20590;-80
2022/02/03 15:29:59;;;;;;;3.50;1.98;;;19.00;51.50;;;;;;6310228;22;20168;-81
2022/02/03 15:33:14;;;;;;;6.10;2.03;;;19.00;52.40;;;;;;6280715;22;20160;-81
2022/02/03 15:35:23;;;;;;;3.33;2.28;;;19.10;51.90;;;;;;6248369;22;20570;-81
2022/02/03 15:38:46;;;;;;;4.45;2.08;;;19.10;50.60;;;;;;6234932;22;20527;-80
2022/02/03 15:41:21;;;;;;;3.88;2.08;;;19.20;50.30;;;;;;6237079;22;20163;-81
2022/02/03 15:44:00;;;;;;;3.67;1.90;;;19.10;51.90;;;;;;6286737;22;20138;-81
2022/02/03 15:46:41;;;;;;;4.38;2.50;;;19.10;51.30;;;;;;6257358;22;20175;-81
2022/02/03 15:49:20;;;;;;;3.97;2.03;;;19.10;51.80;;;;;;6221215;23;20221;-82
2022/02/03 15:58:48;;;;;;;5.70;2.10;;;19.10;52.10;;;;;;6176945;23;20153;-82
2022/02/03 16:03:11;;;;;;;2.85;2.17;;;19.10;51.10;;;;;;6136240;23;20203;-82
2022/02/03 16:14:21;;;;;;;3.20;2.38;;;19.20;51.50;;;;;;6133123;23;20218;-82
2022/02/03 16:16:50;;;;;;;3.15;2.17;;;19.20;51.80;;;;;;6136075;23;20152;-84
2022/02/03 16:19:32;;;;;;;4.35;2.22;;;19.10;52.10;;;;;;6083170;23;20152;-81
2022/02/03 16:22:08;;;;;;;3.72;1.83;;;19.10;52.50;;;;;;6102455;23;20202;-81
2022/02/03 16:24:43;;;;;;;4.78;2.17;;;19.10;51.80;;;;;;6132229;23;20158;-82
2022/02/03 16:51:44;;;;;;;3.28;2.15;;;19.20;52.50;;;;;;6284457;22;20418;-81
2022/02/03 16:54:10;;;;;;;2.30;2.00;;;19.20;52.10;;;;;;6312423;22;20199;-80
2022/02/03 16:57:08;;;;;;;6.05;2.35;;;19.30;52.80;;;;;;6238606;22;20155;-80
2022/02/03 17:00:06;;;;;;;4.85;2.08;;;19.20;52.00;;;;;;6221268;23;20186;-82
2022/02/03 17:02:32;;;;;;;5.55;2.15;;;19.30;52.00;;;;;;6169131;23;20605;-80
2022/02/03 17:05:56;;;;;;;;;;;;;;;;;;;;;
2022/02/03 17:08:37;;;;;;;4.60;2.20;;;19.20;52.30;;;;;;6177784;23;20177;-82
2022/02/03 17:11:03;;;;;;;7.20;2.20;;;19.30;52.80;;;;;;6166439;23;20257;-84
2022/02/03 17:13:31;;;;;;;3.75;2.17;;;19.20;53.30;;;;;;6191085;23;20184;-81
2022/02/03 17:15:57;;;;;;;5.07;2.17;;;19.20;53.00;;;;;;6189545;23;20269;-82
2022/02/03 17:18:23;;;;;;;7.25;2.70;;;19.20;52.90;;;;;;6189169;23;20216;-80
2022/02/03 17:20:49;;;;;;;5.25;2.10;;;19.20;53.60;;;;;;6163796;23;20185;-82
2022/02/03 17:23:18;;;;;;;3.00;2.10;;;19.20;53.50;;;;;;6189567;23;20189;-82
2022/02/03 17:26:13;;;;;;;4.32;2.50;;;19.20;53.40;;;;;;6164793;23;20157;-81
2022/02/03 17:28:54;;;;;;;6.85;2.60;;;19.20;53.70;;;;;;6214067;23;20215;-81
2022/02/03 18:03:24;;;;;;;9.15;2.58;;;19.20;55.00;;;;;;6111872;23;20226;-82
2022/02/03 18:11:27;;;;;;;3.75;2.15;;;19.30;54.50;;;;;;6132078;23;20196;-83
2022/02/03 18:30:14;;;;;;;5.80;2.55;;;19.30;54.60;;;;;;6211235;23;20633;-82
2022/02/03 18:35:43;;;;;;;3.45;2.22;;;19.40;54.30;;;;;;6206976;23;20204;-82
2022/02/03 18:54:27;;;;;;;7.97;2.20;;;19.30;54.20;;;;;;6207780;23;20136;-83
2022/02/03 18:57:02;;;;;;;5.45;2.30;;;19.30;54.40;;;;;;6123338;23;20555;-83
2022/02/03 19:00:01;;;;;;;3.95;2.22;;;19.30;54.70;;;;;;6224210;23;20657;-83
2022/02/03 19:02:58;;;;;;;5.55;2.60;;;19.30;54.10;;;;;;6238048;22;20152;-82
2022/02/03 19:20:55;;;;;;;5.55;2.22;;;19.30;54.40;;;;;;6266830;22;20202;-84
2022/02/03 19:27:22;;;;;;;6.53;2.05;;;19.30;54.40;;;;;;6257169;22;20128;-83
2022/02/03 20:02:33;;;;;;;12.50;3.00;;;19.30;55.30;;;;;;6224502;23;20133;-81
2022/02/03 20:04:55;;;;;;;13.23;3.28;;;19.20;55.50;;;;;;6225207;22;20623;-82
2022/02/03 20:07:33;;;;;;;9.27;3.15;;;19.20;56.00;;;;;;6257507;22;20174;-82
2022/02/03 20:10:09;;;;;;;10.00;2.92;;;19.10;55.80;;;;;;6210320;22;20193;-82
2022/02/03 20:12:43;;;;;;;10.80;2.80;;;19.20;55.30;;;;;;6283739;22;20124;-84
2022/02/03 20:15:11;;;;;;;11.35;2.80;;;19.20;55.50;;;;;;6257509;22;20263;-82
2022/02/03 20:17:36;;;;;;;10.38;3.08;;;19.20;55.60;;;;;;6285686;22;20223;-82
2022/02/03 20:20:03;;;;;;;9.05;2.60;;;19.20;54.80;;;;;;6287514;22;20140;-82
2022/02/03 20:22:33;;;;;;;10.23;2.83;;;19.20;55.30;;;;;;6238718;22;20144;-82
2022/02/03 20:25:00;;;;;;;12.48;2.80;;;19.20;54.40;;;;;;6263476;22;20194;-82
2022/02/03 20:27:28;;;;;;;8.93;3.00;;;19.20;55.00;;;;;;6264269;22;20147;-82
2022/02/03 20:29:55;;;;;;;6.97;2.42;;;19.20;55.00;;;;;;6228121;22;20176;-82
2022/02/03 20:32:21;;;;;;;10.15;3.00;;;19.20;54.70;;;;;;6200924;22;20610;-82
2022/02/03 20:34:46;;;;;;;8.10;2.40;;;19.20;55.50;;;;;;6280974;22;20148;-82
2022/02/03 20:37:13;;;;;;;12.40;2.83;;;19.20;54.80;;;;;;6254862;22;20181;-82
2022/02/03 20:39:38;;;;;;;9.82;2.67;;;19.20;55.00;;;;;;6255366;22;20148;-82
2022/02/03 20:42:04;;;;;;;7.47;2.72;;;19.20;55.20;;;;;;6255546;22;20133;-82
2022/02/03 20:44:30;;;;;;;7.82;2.78;;;19.20;54.50;;;;;;6255793;22;20522;-82
2022/02/03 20:46:56;;;;;;;9.15;2.92;;;19.10;55.90;;;;;;6230913;22;20321;-82
2022/02/03 20:49:21;;;;;;;7.93;2.65;;;19.10;56.40;;;;;;6282955;22;20624;-83
2022/02/03 20:51:47;;;;;;;8.45;2.60;;;19.00;56.30;;;;;;6279914;22;20526;-82
2022/02/03 20:54:13;;;;;;;7.85;2.70;;;19.10;55.40;;;;;;6279055;22;20141;-82
2022/02/03 20:56:39;;;;;;;9.70;2.80;;;19.10;55.70;;;;;;6254896;22;20132;-82
2022/02/03 20:59:08;;;;;;;10.30;2.88;;;19.10;56.00;;;;;;6280924;22;20586;-83
2022/02/03 21:01:37;;;;;;;6.03;2.45;;;19.00;55.70;;;;;;6281295;22;20159;-82
2022/02/03 21:04:11;;;;;;;6.88;2.63;;;19.00;55.90;;;;;;6255864;22;20191;-82
2022/02/03 21:06:37;;;;;;;11.10;2.60;;;19.00;55.60;;;;;;6308145;22;20132;-82
2022/02/03 21:09:05;;;;;;;9.85;2.70;;;19.00;56.00;;;;;;6281234;22;20194;-82
2022/02/03 21:11:31;;;;;;;5.03;2.30;;;19.00;55.40;;;;;;6280553;22;20227;-82
2022/02/03 21:13:58;;;;;;;6.95;2.88;;;18.90;56.10;;;;;;6255561;22;20148;-82
2022/02/03 21:16:23;;;;;;;7.30;2.38;;;19.00;56.60;;;;;;6255658;22;20131;-82
2022/02/03 21:18:49;;;;;;;4.78;2.38;;;18.90;56.30;;;;;;6255507;22;20147;-82
2022/02/03 21:21:15;;;;;;;8.25;2.60;;;18.90;56.60;;;;;;6255683;22;20495;-82
2022/02/03 21:23:40;;;;;;;8.23;2.58;;;18.90;56.70;;;;;;6255388;22;20608;-81
2022/02/03 21:26:14;;;;;;;9.38;2.75;;;18.90;56.50;;;;;;6255688;22;20512;-82
2022/02/03 21:28:45;;;;;;;7.35;2.88;;;18.90;57.10;;;;;;6256918;22;20174;-82
2022/02/03 21:31:12;;;;;;;14.05;3.15;;;18.80;57.70;;;;;;6256327;22;20233;-82
2022/02/03 21:33:46;;;;;;;6.00;2.95;;;18.80;58.00;;;;;;6281212;22;20144;-82
2022/02/03 21:36:14;;;;;;;11.20;3.10;;;18.70;57.90;;;;;;6257517;22;20154;-81
2022/02/03 21:38:41;;;;;;;8.10;2.60;;;18.70;58.00;;;;;;6256056;22;20148;-82
2022/02/03 21:41:09;;;;;;;8.55;2.90;;;18.70;58.00;;;;;;6280980;22;20151;-82